sensor_id;sensor_type;location;lat;lon;timestamp;temperature;humidity
17815;DHT22;9031;50.974;11.330;2024-02-15T00:01:39;10.30;99.90
17815;DHT22;9031;50.974;11.330;2024-02-15T00:04:04;10.40;99.90
17815;DHT22;9031;50.974;11.330;2024-02-15T00:06:31;10.40;99.90
17815;DHT22;9031;50.974;11.330;2024-02-15T00:08:56;10.40;99.90
17815;DHT22;9031;50.974;11.330;2024-02-15T00:11:22;10.40;99.90
17815;DHT22;9031;50.974;11.330;2024-02-15T00:13:47;10.30;99.90
17815;DHT22;9031;50.974;11.330;2024-02-15T00:16:14;10.30;99.90
17815;DHT22;9031;50.974;11.330;2024-02-15T00:18:40;10.30;99.90
17815;DHT22;9031;50.974;11.330;2024-02-15T00:21:05;10.10;99.90
17815;DHT22;9031;50.974;11.330;2024-02-15T00:23:31;10.20;99.90
17815;DHT22;9031;50.974;11.330;2024-02-15T00:25:57;10.20;99.90
17815;DHT22;9031;50.974;11.330;2024-02-15T00:28:23;10.20;99.90
17815;DHT22;9031;50.974;11.330;2024-02-15T00:30:49;10.10;99.90
17815;DHT22;9031;50.974;11.330;2024-02-15T00:33:15;10.10;99.90
17815;DHT22;9031;50.974;11.330;2024-02-15T00:35:41;10.00;99.90
17815;DHT22;9031;50.974;11.330;2024-02-15T00:38:06;10.00;99.90
17815;DHT22;9031;50.974;11.330;2024-02-15T00:40:32;10.10;99.90
17815;DHT22;9031;50.974;11.330;2024-02-15T00:42:57;10.10;99.90
17815;DHT22;9031;50.974;11.330;2024-02-15T00:45:23;10.20;99.90
17815;DHT22;9031;50.974;11.330;2024-02-15T00:47:49;10.10;99.90
17815;DHT22;9031;50.974;11.330;2024-02-15T00:50:15;10.10;99.90
17815;DHT22;9031;50.974;11.330;2024-02-15T00:52:40;10.10;99.90
17815;DHT22;9031;50.974;11.330;2024-02-15T00:55:06;10.10;99.90
17815;DHT22;9031;50.974;11.330;2024-02-15T00:57:31;10.20;99.90
17815;DHT22;9031;50.974;11.330;2024-02-15T00:59:57;10.30;99.90
17815;DHT22;9031;50.974;11.330;2024-02-15T01:02:22;10.40;99.90
17815;DHT22;9031;50.974;11.330;2024-02-15T01:04:49;10.40;99.90
17815;DHT22;9031;50.974;11.330;2024-02-15T01:07:15;10.50;99.90
17815;DHT22;9031;50.974;11.330;2024-02-15T01:09:40;10.40;99.90
17815;DHT22;9031;50.974;11.330;2024-02-15T01:12:06;10.40;99.90
17815;DHT22;9031;50.974;11.330;2024-02-15T01:14:32;10.50;99.90
17815;DHT22;9031;50.974;11.330;2024-02-15T01:16:57;10.40;99.90
17815;DHT22;9031;50.974;11.330;2024-02-15T01:19:23;10.40;99.90
17815;DHT22;9031;50.974;11.330;2024-02-15T01:21:48;10.50;99.90
17815;DHT22;9031;50.974;11.330;2024-02-15T01:24:14;10.60;99.90
17815;DHT22;9031;50.974;11.330;2024-02-15T01:26:40;10.60;99.90
17815;DHT22;9031;50.974;11.330;2024-02-15T01:29:05;10.50;99.90
17815;DHT22;9031;50.974;11.330;2024-02-15T01:31:31;10.50;99.90
17815;DHT22;9031;50.974;11.330;2024-02-15T01:33:56;10.50;99.90
17815;DHT22;9031;50.974;11.330;2024-02-15T01:36:22;10.50;99.90
17815;DHT22;9031;50.974;11.330;2024-02-15T01:38:48;10.50;99.90
17815;DHT22;9031;50.974;11.330;2024-02-15T01:41:13;10.50;99.90
17815;DHT22;9031;50.974;11.330;2024-02-15T01:43:43;10.40;99.90
17815;DHT22;9031;50.974;11.330;2024-02-15T01:46:09;10.20;99.90
17815;DHT22;9031;50.974;11.330;2024-02-15T01:48:36;10.20;99.90
17815;DHT22;9031;50.974;11.330;2024-02-15T01:51:02;10.20;99.90
17815;DHT22;9031;50.974;11.330;2024-02-15T01:53:29;10.20;99.90
17815;DHT22;9031;50.974;11.330;2024-02-15T01:55:55;10.00;99.90
17815;DHT22;9031;50.974;11.330;2024-02-15T01:58:23;10.10;99.90
17815;DHT22;9031;50.974;11.330;2024-02-15T02:00:49;10.00;99.90
17815;DHT22;9031;50.974;11.330;2024-02-15T02:03:15;10.00;99.90
17815;DHT22;9031;50.974;11.330;2024-02-15T02:05:42;10.00;99.90
17815;DHT22;9031;50.974;11.330;2024-02-15T02:08:08;10.00;99.90
17815;DHT22;9031;50.974;11.330;2024-02-15T02:10:38;10.00;99.90
17815;DHT22;9031;50.974;11.330;2024-02-15T02:13:04;10.10;99.90
17815;DHT22;9031;50.974;11.330;2024-02-15T02:15:34;10.20;99.90
17815;DHT22;9031;50.974;11.330;2024-02-15T02:18:00;10.30;99.90
17815;DHT22;9031;50.974;11.330;2024-02-15T02:20:26;10.40;99.90
17815;DHT22;9031;50.974;11.330;2024-02-15T02:22:54;10.40;99.90
17815;DHT22;9031;50.974;11.330;2024-02-15T02:25:23;10.40;99.90
17815;DHT22;9031;50.974;11.330;2024-02-15T02:27:51;10.40;99.90
17815;DHT22;9031;50.974;11.330;2024-02-15T02:30:17;10.40;99.90
17815;DHT22;9031;50.974;11.330;2024-02-15T02:32:44;10.50;99.90
17815;DHT22;9031;50.974;11.330;2024-02-15T02:35:11;10.50;99.90
17815;DHT22;9031;50.974;11.330;2024-02-15T02:37:41;10.40;99.90
17815;DHT22;9031;50.974;11.330;2024-02-15T02:40:08;10.40;99.90
17815;DHT22;9031;50.974;11.330;2024-02-15T02:42:49;10.40;99.90
17815;DHT22;9031;50.974;11.330;2024-02-15T02:45:15;10.50;99.90
17815;DHT22;9031;50.974;11.330;2024-02-15T02:47:41;10.40;99.90
17815;DHT22;9031;50.974;11.330;2024-02-15T02:50:06;10.40;99.90
17815;DHT22;9031;50.974;11.330;2024-02-15T02:52:33;10.40;99.90
17815;DHT22;9031;50.974;11.330;2024-02-15T02:54:58;10.40;99.90
17815;DHT22;9031;50.974;11.330;2024-02-15T02:57:24;10.40;99.90
17815;DHT22;9031;50.974;11.330;2024-02-15T02:59:51;10.50;99.90
17815;DHT22;9031;50.974;11.330;2024-02-15T03:02:16;10.40;99.90
17815;DHT22;9031;50.974;11.330;2024-02-15T03:04:43;10.40;99.90
17815;DHT22;9031;50.974;11.330;2024-02-15T03:07:08;10.30;99.90
17815;DHT22;9031;50.974;11.330;2024-02-15T03:09:34;10.30;99.90
17815;DHT22;9031;50.974;11.330;2024-02-15T03:11:59;10.30;99.90
17815;DHT22;9031;50.974;11.330;2024-02-15T03:14:26;10.40;99.90
17815;DHT22;9031;50.974;11.330;2024-02-15T03:16:52;10.30;99.90
17815;DHT22;9031;50.974;11.330;2024-02-15T03:19:17;10.30;99.90
17815;DHT22;9031;50.974;11.330;2024-02-15T03:21:42;10.40;99.90
17815;DHT22;9031;50.974;11.330;2024-02-15T03:24:11;10.30;99.90
17815;DHT22;9031;50.974;11.330;2024-02-15T03:26:37;10.40;99.90
17815;DHT22;9031;50.974;11.330;2024-02-15T03:29:04;10.40;99.90
17815;DHT22;9031;50.974;11.330;2024-02-15T03:31:29;10.60;99.90
17815;DHT22;9031;50.974;11.330;2024-02-15T03:33:57;10.60;99.90
17815;DHT22;9031;50.974;11.330;2024-02-15T03:36:22;10.60;99.90
17815;DHT22;9031;50.974;11.330;2024-02-15T03:38:48;10.60;99.90
17815;DHT22;9031;50.974;11.330;2024-02-15T03:41:14;10.60;99.90
17815;DHT22;9031;50.974;11.330;2024-02-15T03:43:39;10.60;99.90
17815;DHT22;9031;50.974;11.330;2024-02-15T03:46:05;10.70;99.90
17815;DHT22;9031;50.974;11.330;2024-02-15T03:48:32;10.60;99.90
17815;DHT22;9031;50.974;11.330;2024-02-15T03:50:58;10.50;99.90
17815;DHT22;9031;50.974;11.330;2024-02-15T03:53:23;10.40;99.90
17815;DHT22;9031;50.974;11.330;2024-02-15T03:55:49;10.40;99.90
17815;DHT22;9031;50.974;11.330;2024-02-15T03:58:18;10.30;99.90
17815;DHT22;9031;50.974;11.330;2024-02-15T04:00:45;10.30;99.90
17815;DHT22;9031;50.974;11.330;2024-02-15T04:03:10;10.20;99.90
17815;DHT22;9031;50.974;11.330;2024-02-15T04:05:36;10.20;99.90
17815;DHT22;9031;50.974;11.330;2024-02-15T04:08:01;10.10;99.90
17815;DHT22;9031;50.974;11.330;2024-02-15T04:10:27;10.10;99.90
17815;DHT22;9031;50.974;11.330;2024-02-15T04:12:53;10.20;99.90
17815;DHT22;9031;50.974;11.330;2024-02-15T04:15:19;10.30;99.90
17815;DHT22;9031;50.974;11.330;2024-02-15T04:17:44;10.30;99.90
17815;DHT22;9031;50.974;11.330;2024-02-15T04:20:10;10.40;99.90
17815;DHT22;9031;50.974;11.330;2024-02-15T04:22:37;10.50;99.90
17815;DHT22;9031;50.974;11.330;2024-02-15T04:25:05;10.60;99.90
17815;DHT22;9031;50.974;11.330;2024-02-15T04:27:31;10.60;99.90
17815;DHT22;9031;50.974;11.330;2024-02-15T04:29:57;10.50;99.90
17815;DHT22;9031;50.974;11.330;2024-02-15T04:32:22;10.50;99.90
17815;DHT22;9031;50.974;11.330;2024-02-15T04:34:48;10.50;99.90
17815;DHT22;9031;50.974;11.330;2024-02-15T04:37:13;10.50;99.90
17815;DHT22;9031;50.974;11.330;2024-02-15T04:39:39;10.60;99.90
17815;DHT22;9031;50.974;11.330;2024-02-15T04:42:05;10.50;99.90
17815;DHT22;9031;50.974;11.330;2024-02-15T04:44:33;10.60;99.90
17815;DHT22;9031;50.974;11.330;2024-02-15T04:47:01;10.60;99.90
17815;DHT22;9031;50.974;11.330;2024-02-15T04:49:26;10.70;99.90
17815;DHT22;9031;50.974;11.330;2024-02-15T04:51:54;10.70;99.90
17815;DHT22;9031;50.974;11.330;2024-02-15T04:54:20;10.70;99.90
17815;DHT22;9031;50.974;11.330;2024-02-15T04:56:45;10.70;99.90
17815;DHT22;9031;50.974;11.330;2024-02-15T04:59:11;10.70;99.90
17815;DHT22;9031;50.974;11.330;2024-02-15T05:01:40;10.80;99.90
17815;DHT22;9031;50.974;11.330;2024-02-15T05:04:08;10.80;99.90
17815;DHT22;9031;50.974;11.330;2024-02-15T05:06:33;10.70;99.90
17815;DHT22;9031;50.974;11.330;2024-02-15T05:08:59;10.60;99.90
17815;DHT22;9031;50.974;11.330;2024-02-15T05:11:33;10.70;99.90
17815;DHT22;9031;50.974;11.330;2024-02-15T05:14:01;10.70;99.90
17815;DHT22;9031;50.974;11.330;2024-02-15T05:16:26;10.70;99.90
17815;DHT22;9031;50.974;11.330;2024-02-15T05:18:52;10.60;99.90
17815;DHT22;9031;50.974;11.330;2024-02-15T05:21:18;10.50;99.90
17815;DHT22;9031;50.974;11.330;2024-02-15T05:23:45;10.40;99.90
17815;DHT22;9031;50.974;11.330;2024-02-15T05:26:11;10.50;99.90
17815;DHT22;9031;50.974;11.330;2024-02-15T05:28:38;10.50;99.90
17815;DHT22;9031;50.974;11.330;2024-02-15T05:31:14;10.50;99.90
17815;DHT22;9031;50.974;11.330;2024-02-15T05:33:42;10.60;99.90
17815;DHT22;9031;50.974;11.330;2024-02-15T05:36:10;10.70;99.90
17815;DHT22;9031;50.974;11.330;2024-02-15T05:38:36;10.70;99.90
17815;DHT22;9031;50.974;11.330;2024-02-15T05:41:02;10.80;99.90
17815;DHT22;9031;50.974;11.330;2024-02-15T05:43:28;10.80;99.90
17815;DHT22;9031;50.974;11.330;2024-02-15T05:45:54;10.80;99.90
17815;DHT22;9031;50.974;11.330;2024-02-15T05:48:19;10.80;99.90
17815;DHT22;9031;50.974;11.330;2024-02-15T05:50:46;10.80;99.90
17815;DHT22;9031;50.974;11.330;2024-02-15T05:53:12;10.80;99.90
17815;DHT22;9031;50.974;11.330;2024-02-15T05:55:37;10.80;99.90
17815;DHT22;9031;50.974;11.330;2024-02-15T05:58:06;10.80;99.90
17815;DHT22;9031;50.974;11.330;2024-02-15T06:00:34;10.90;99.90
17815;DHT22;9031;50.974;11.330;2024-02-15T06:03:00;10.90;99.90
17815;DHT22;9031;50.974;11.330;2024-02-15T06:05:28;10.90;99.90
17815;DHT22;9031;50.974;11.330;2024-02-15T06:07:53;10.80;99.90
17815;DHT22;9031;50.974;11.330;2024-02-15T06:10:19;10.90;99.90
17815;DHT22;9031;50.974;11.330;2024-02-15T06:12:44;10.90;99.90
17815;DHT22;9031;50.974;11.330;2024-02-15T06:15:10;10.90;99.90
17815;DHT22;9031;50.974;11.330;2024-02-15T06:17:46;10.90;99.90
17815;DHT22;9031;50.974;11.330;2024-02-15T06:20:15;10.90;99.90
17815;DHT22;9031;50.974;11.330;2024-02-15T06:22:43;10.80;99.90
17815;DHT22;9031;50.974;11.330;2024-02-15T06:25:09;10.80;99.90
17815;DHT22;9031;50.974;11.330;2024-02-15T06:27:38;10.80;99.90
17815;DHT22;9031;50.974;11.330;2024-02-15T06:30:07;10.90;99.90
17815;DHT22;9031;50.974;11.330;2024-02-15T06:32:57;10.90;99.90
17815;DHT22;9031;50.974;11.330;2024-02-15T06:35:41;10.80;99.90
17815;DHT22;9031;50.974;11.330;2024-02-15T06:38:26;11.00;99.90
17815;DHT22;9031;50.974;11.330;2024-02-15T06:41:11;11.10;99.90
17815;DHT22;9031;50.974;11.330;2024-02-15T06:43:37;11.10;99.90
17815;DHT22;9031;50.974;11.330;2024-02-15T06:46:05;11.20;99.90
17815;DHT22;9031;50.974;11.330;2024-02-15T06:48:31;11.20;99.90
17815;DHT22;9031;50.974;11.330;2024-02-15T06:50:56;11.20;99.90
17815;DHT22;9031;50.974;11.330;2024-02-15T06:53:22;11.20;99.90
17815;DHT22;9031;50.974;11.330;2024-02-15T06:55:47;11.30;99.90
17815;DHT22;9031;50.974;11.330;2024-02-15T06:58:17;11.40;99.90
17815;DHT22;9031;50.974;11.330;2024-02-15T07:00:43;11.40;99.90
17815;DHT22;9031;50.974;11.330;2024-02-15T07:03:09;11.50;99.90
17815;DHT22;9031;50.974;11.330;2024-02-15T07:05:36;11.50;99.90
17815;DHT22;9031;50.974;11.330;2024-02-15T07:08:04;11.50;99.90
17815;DHT22;9031;50.974;11.330;2024-02-15T07:10:30;11.50;99.90
17815;DHT22;9031;50.974;11.330;2024-02-15T07:12:57;11.50;99.90
17815;DHT22;9031;50.974;11.330;2024-02-15T07:15:22;11.50;99.90
17815;DHT22;9031;50.974;11.330;2024-02-15T07:17:47;11.40;99.90
17815;DHT22;9031;50.974;11.330;2024-02-15T07:20:13;11.40;99.90
17815;DHT22;9031;50.974;11.330;2024-02-15T07:22:43;11.40;99.90
17815;DHT22;9031;50.974;11.330;2024-02-15T07:25:09;11.40;99.90
17815;DHT22;9031;50.974;11.330;2024-02-15T07:27:35;11.50;99.90
17815;DHT22;9031;50.974;11.330;2024-02-15T07:30:01;11.50;99.90
17815;DHT22;9031;50.974;11.330;2024-02-15T07:32:27;11.60;99.90
17815;DHT22;9031;50.974;11.330;2024-02-15T07:34:53;11.60;99.90
17815;DHT22;9031;50.974;11.330;2024-02-15T07:37:18;11.50;99.90
17815;DHT22;9031;50.974;11.330;2024-02-15T07:39:43;11.60;99.90
17815;DHT22;9031;50.974;11.330;2024-02-15T07:42:09;11.50;99.90
17815;DHT22;9031;50.974;11.330;2024-02-15T07:44:35;11.60;99.90
17815;DHT22;9031;50.974;11.330;2024-02-15T07:47:02;11.60;99.90
17815;DHT22;9031;50.974;11.330;2024-02-15T07:49:28;11.70;99.90
17815;DHT22;9031;50.974;11.330;2024-02-15T07:51:54;11.70;99.90
17815;DHT22;9031;50.974;11.330;2024-02-15T07:54:20;11.70;99.90
17815;DHT22;9031;50.974;11.330;2024-02-15T07:56:48;11.70;99.90
17815;DHT22;9031;50.974;11.330;2024-02-15T07:59:14;11.80;99.90
17815;DHT22;9031;50.974;11.330;2024-02-15T08:01:43;11.80;99.90
17815;DHT22;9031;50.974;11.330;2024-02-15T08:04:11;11.60;99.90
17815;DHT22;9031;50.974;11.330;2024-02-15T08:06:36;11.70;99.90
17815;DHT22;9031;50.974;11.330;2024-02-15T08:09:03;11.80;99.90
17815;DHT22;9031;50.974;11.330;2024-02-15T08:11:32;12.00;99.90
17815;DHT22;9031;50.974;11.330;2024-02-15T08:13:57;12.10;99.90
17815;DHT22;9031;50.974;11.330;2024-02-15T08:16:25;12.20;99.90
17815;DHT22;9031;50.974;11.330;2024-02-15T08:18:54;12.20;99.90
17815;DHT22;9031;50.974;11.330;2024-02-15T08:21:46;12.20;99.90
17815;DHT22;9031;50.974;11.330;2024-02-15T08:24:15;12.20;99.90
17815;DHT22;9031;50.974;11.330;2024-02-15T08:26:42;12.30;99.90
17815;DHT22;9031;50.974;11.330;2024-02-15T08:29:07;12.40;99.90
17815;DHT22;9031;50.974;11.330;2024-02-15T08:31:33;12.50;99.90
17815;DHT22;9031;50.974;11.330;2024-02-15T08:34:02;12.40;99.90
17815;DHT22;9031;50.974;11.330;2024-02-15T08:36:30;12.30;99.90
17815;DHT22;9031;50.974;11.330;2024-02-15T08:38:56;12.40;99.90
17815;DHT22;9031;50.974;11.330;2024-02-15T08:41:22;12.60;99.90
17815;DHT22;9031;50.974;11.330;2024-02-15T08:43:52;12.80;99.90
17815;DHT22;9031;50.974;11.330;2024-02-15T08:46:18;13.10;99.90
17815;DHT22;9031;50.974;11.330;2024-02-15T08:48:45;13.10;99.90
17815;DHT22;9031;50.974;11.330;2024-02-15T08:51:12;13.00;99.90
17815;DHT22;9031;50.974;11.330;2024-02-15T08:53:37;13.00;99.90
17815;DHT22;9031;50.974;11.330;2024-02-15T08:56:04;13.10;99.90
17815;DHT22;9031;50.974;11.330;2024-02-15T08:58:30;13.10;99.90
17815;DHT22;9031;50.974;11.330;2024-02-15T09:00:56;13.00;99.90
17815;DHT22;9031;50.974;11.330;2024-02-15T09:03:22;13.00;99.90
17815;DHT22;9031;50.974;11.330;2024-02-15T09:05:47;13.00;99.90
17815;DHT22;9031;50.974;11.330;2024-02-15T09:08:13;12.80;99.90
17815;DHT22;9031;50.974;11.330;2024-02-15T09:10:41;12.80;99.90
17815;DHT22;9031;50.974;11.330;2024-02-15T09:13:06;12.80;99.90
17815;DHT22;9031;50.974;11.330;2024-02-15T09:15:32;13.00;99.90
17815;DHT22;9031;50.974;11.330;2024-02-15T09:17:57;13.10;99.90
17815;DHT22;9031;50.974;11.330;2024-02-15T09:20:23;13.20;99.90
17815;DHT22;9031;50.974;11.330;2024-02-15T09:22:54;13.30;99.90
17815;DHT22;9031;50.974;11.330;2024-02-15T09:25:20;13.30;99.90
17815;DHT22;9031;50.974;11.330;2024-02-15T09:27:48;13.20;99.90
17815;DHT22;9031;50.974;11.330;2024-02-15T09:30:15;13.20;99.90
17815;DHT22;9031;50.974;11.330;2024-02-15T09:32:41;13.10;99.90
17815;DHT22;9031;50.974;11.330;2024-02-15T09:35:07;13.10;99.90
17815;DHT22;9031;50.974;11.330;2024-02-15T09:37:34;13.00;99.90
17815;DHT22;9031;50.974;11.330;2024-02-15T09:40:00;12.70;99.90
17815;DHT22;9031;50.974;11.330;2024-02-15T09:42:31;12.90;99.90
17815;DHT22;9031;50.974;11.330;2024-02-15T09:45:00;13.00;99.90
17815;DHT22;9031;50.974;11.330;2024-02-15T09:47:30;13.00;99.90
17815;DHT22;9031;50.974;11.330;2024-02-15T09:49:59;13.10;99.90
17815;DHT22;9031;50.974;11.330;2024-02-15T09:52:24;13.30;99.90
17815;DHT22;9031;50.974;11.330;2024-02-15T09:54:50;13.50;99.90
17815;DHT22;9031;50.974;11.330;2024-02-15T09:57:17;13.60;99.90
17815;DHT22;9031;50.974;11.330;2024-02-15T09:59:43;13.70;99.90
17815;DHT22;9031;50.974;11.330;2024-02-15T10:02:10;13.70;99.90
17815;DHT22;9031;50.974;11.330;2024-02-15T10:04:39;13.70;99.90
17815;DHT22;9031;50.974;11.330;2024-02-15T10:07:05;13.80;99.90
17815;DHT22;9031;50.974;11.330;2024-02-15T10:09:34;13.80;99.90
17815;DHT22;9031;50.974;11.330;2024-02-15T10:12:02;13.80;99.90
17815;DHT22;9031;50.974;11.330;2024-02-15T10:14:29;13.70;99.90
17815;DHT22;9031;50.974;11.330;2024-02-15T10:16:55;13.60;99.90
17815;DHT22;9031;50.974;11.330;2024-02-15T10:19:24;13.60;99.90
17815;DHT22;9031;50.974;11.330;2024-02-15T10:21:54;13.60;99.90
17815;DHT22;9031;50.974;11.330;2024-02-15T10:24:23;13.60;99.90
17815;DHT22;9031;50.974;11.330;2024-02-15T10:27:03;13.60;99.90
17815;DHT22;9031;50.974;11.330;2024-02-15T10:29:29;13.70;99.90
17815;DHT22;9031;50.974;11.330;2024-02-15T10:32:00;13.70;99.90
17815;DHT22;9031;50.974;11.330;2024-02-15T10:34:26;13.50;99.90
17815;DHT22;9031;50.974;11.330;2024-02-15T10:36:54;13.50;99.90
17815;DHT22;9031;50.974;11.330;2024-02-15T10:39:22;13.50;99.90
17815;DHT22;9031;50.974;11.330;2024-02-15T10:41:53;13.40;99.90
17815;DHT22;9031;50.974;11.330;2024-02-15T10:44:23;13.60;99.90
17815;DHT22;9031;50.974;11.330;2024-02-15T10:46:50;13.50;99.90
17815;DHT22;9031;50.974;11.330;2024-02-15T10:49:23;13.50;99.90
17815;DHT22;9031;50.974;11.330;2024-02-15T10:51:56;13.60;99.90
17815;DHT22;9031;50.974;11.330;2024-02-15T10:54:46;13.70;99.90
17815;DHT22;9031;50.974;11.330;2024-02-15T10:57:12;13.80;99.90
17815;DHT22;9031;50.974;11.330;2024-02-15T10:59:50;13.90;99.90
17815;DHT22;9031;50.974;11.330;2024-02-15T11:02:28;13.90;99.90
17815;DHT22;9031;50.974;11.330;2024-02-15T11:05:05;14.00;99.90
17815;DHT22;9031;50.974;11.330;2024-02-15T11:07:34;14.20;99.90
17815;DHT22;9031;50.974;11.330;2024-02-15T11:10:01;14.40;99.90
17815;DHT22;9031;50.974;11.330;2024-02-15T11:12:28;14.50;99.90
17815;DHT22;9031;50.974;11.330;2024-02-15T11:14:54;14.60;99.90
17815;DHT22;9031;50.974;11.330;2024-02-15T11:20:09;16.50;99.90
17815;DHT22;9031;50.974;11.330;2024-02-15T11:22:37;18.50;99.90
17815;DHT22;9031;50.974;11.330;2024-02-15T11:25:03;19.30;99.90
17815;DHT22;9031;50.974;11.330;2024-02-15T11:27:38;20.60;99.90
17815;DHT22;9031;50.974;11.330;2024-02-15T11:30:05;20.80;99.90
17815;DHT22;9031;50.974;11.330;2024-02-15T11:32:47;21.80;99.90
17815;DHT22;9031;50.974;11.330;2024-02-15T11:35:22;21.10;99.90
17815;DHT22;9031;50.974;11.330;2024-02-15T11:37:52;19.50;99.90
17815;DHT22;9031;50.974;11.330;2024-02-15T11:43:08;17.90;99.90
17815;DHT22;9031;50.974;11.330;2024-02-15T11:45:36;17.70;99.90
17815;DHT22;9031;50.974;11.330;2024-02-15T11:48:09;17.40;99.90
17815;DHT22;9031;50.974;11.330;2024-02-15T11:50:39;17.20;99.90
17815;DHT22;9031;50.974;11.330;2024-02-15T11:53:06;17.00;99.90
17815;DHT22;9031;50.974;11.330;2024-02-15T11:55:35;16.70;99.90
17815;DHT22;9031;50.974;11.330;2024-02-15T11:58:04;17.00;99.90
17815;DHT22;9031;50.974;11.330;2024-02-15T12:00:31;17.30;99.90
17815;DHT22;9031;50.974;11.330;2024-02-15T12:03:16;17.40;99.90
17815;DHT22;9031;50.974;11.330;2024-02-15T12:06:01;17.50;99.90
17815;DHT22;9031;50.974;11.330;2024-02-15T12:08:46;17.00;99.90
17815;DHT22;9031;50.974;11.330;2024-02-15T12:11:30;16.50;99.90
17815;DHT22;9031;50.974;11.330;2024-02-15T12:14:15;16.50;99.90
17815;DHT22;9031;50.974;11.330;2024-02-15T12:17:04;16.70;99.90
17815;DHT22;9031;50.974;11.330;2024-02-15T12:19:50;16.50;99.90
17815;DHT22;9031;50.974;11.330;2024-02-15T12:22:46;16.50;99.90
17815;DHT22;9031;50.974;11.330;2024-02-15T12:25:16;17.40;99.90
17815;DHT22;9031;50.974;11.330;2024-02-15T12:27:44;17.90;99.90
17815;DHT22;9031;50.974;11.330;2024-02-15T12:30:14;18.90;99.90
17815;DHT22;9031;50.974;11.330;2024-02-15T12:32:40;19.50;99.90
17815;DHT22;9031;50.974;11.330;2024-02-15T12:35:13;19.20;99.90
17815;DHT22;9031;50.974;11.330;2024-02-15T12:38:03;18.60;99.90
17815;DHT22;9031;50.974;11.330;2024-02-15T12:40:32;18.70;99.90
17815;DHT22;9031;50.974;11.330;2024-02-15T12:42:57;18.40;99.90
17815;DHT22;9031;50.974;11.330;2024-02-15T12:45:25;17.90;99.90
17815;DHT22;9031;50.974;11.330;2024-02-15T12:47:55;17.20;99.90
17815;DHT22;9031;50.974;11.330;2024-02-15T12:50:22;16.70;99.90
17815;DHT22;9031;50.974;11.330;2024-02-15T12:52:49;16.40;99.90
17815;DHT22;9031;50.974;11.330;2024-02-15T12:55:19;16.20;99.90
17815;DHT22;9031;50.974;11.330;2024-02-15T12:57:48;16.20;99.90
17815;DHT22;9031;50.974;11.330;2024-02-15T13:00:18;16.20;99.90
17815;DHT22;9031;50.974;11.330;2024-02-15T13:02:45;16.20;99.90
17815;DHT22;9031;50.974;11.330;2024-02-15T13:05:11;16.20;99.90
17815;DHT22;9031;50.974;11.330;2024-02-15T13:07:37;16.40;99.90
17815;DHT22;9031;50.974;11.330;2024-02-15T13:10:05;16.50;99.90
17815;DHT22;9031;50.974;11.330;2024-02-15T13:12:35;16.40;99.90
17815;DHT22;9031;50.974;11.330;2024-02-15T13:15:05;16.50;99.90
17815;DHT22;9031;50.974;11.330;2024-02-15T13:17:32;16.60;99.90
17815;DHT22;9031;50.974;11.330;2024-02-15T13:19:59;16.80;99.90
17815;DHT22;9031;50.974;11.330;2024-02-15T13:22:36;16.60;99.90
17815;DHT22;9031;50.974;11.330;2024-02-15T13:25:01;16.10;99.90
17815;DHT22;9031;50.974;11.330;2024-02-15T13:27:28;16.20;99.90
17815;DHT22;9031;50.974;11.330;2024-02-15T13:29:54;16.30;99.90
17815;DHT22;9031;50.974;11.330;2024-02-15T13:32:20;16.40;99.90
17815;DHT22;9031;50.974;11.330;2024-02-15T13:34:47;16.30;99.90
17815;DHT22;9031;50.974;11.330;2024-02-15T13:37:20;16.20;99.90
17815;DHT22;9031;50.974;11.330;2024-02-15T13:39:47;16.20;99.90
17815;DHT22;9031;50.974;11.330;2024-02-15T13:42:13;16.10;99.90
17815;DHT22;9031;50.974;11.330;2024-02-15T13:44:38;16.10;99.90
17815;DHT22;9031;50.974;11.330;2024-02-15T13:47:04;16.10;99.90
17815;DHT22;9031;50.974;11.330;2024-02-15T13:49:30;16.00;99.90
17815;DHT22;9031;50.974;11.330;2024-02-15T13:52:00;16.10;99.90
17815;DHT22;9031;50.974;11.330;2024-02-15T13:54:29;15.80;99.90
17815;DHT22;9031;50.974;11.330;2024-02-15T13:56:55;15.80;99.90
17815;DHT22;9031;50.974;11.330;2024-02-15T13:59:22;16.00;99.90
17815;DHT22;9031;50.974;11.330;2024-02-15T14:01:48;16.30;99.90
17815;DHT22;9031;50.974;11.330;2024-02-15T14:04:15;16.20;99.90
17815;DHT22;9031;50.974;11.330;2024-02-15T14:06:41;16.00;99.90
17815;DHT22;9031;50.974;11.330;2024-02-15T14:09:12;15.90;99.90
17815;DHT22;9031;50.974;11.330;2024-02-15T14:11:38;15.90;99.90
17815;DHT22;9031;50.974;11.330;2024-02-15T14:14:05;16.10;99.90
17815;DHT22;9031;50.974;11.330;2024-02-15T14:16:31;16.10;99.90
17815;DHT22;9031;50.974;11.330;2024-02-15T14:18:56;16.10;99.90
17815;DHT22;9031;50.974;11.330;2024-02-15T14:21:22;15.80;99.90
17815;DHT22;9031;50.974;11.330;2024-02-15T14:23:48;15.60;99.90
17815;DHT22;9031;50.974;11.330;2024-02-15T14:26:13;15.50;99.90
17815;DHT22;9031;50.974;11.330;2024-02-15T14:28:39;15.50;99.90
17815;DHT22;9031;50.974;11.330;2024-02-15T14:31:07;15.40;99.90
17815;DHT22;9031;50.974;11.330;2024-02-15T14:33:50;15.30;99.90
17815;DHT22;9031;50.974;11.330;2024-02-15T14:36:16;15.20;99.90
17815;DHT22;9031;50.974;11.330;2024-02-15T14:38:43;15.00;99.90
17815;DHT22;9031;50.974;11.330;2024-02-15T14:41:09;15.00;99.90
17815;DHT22;9031;50.974;11.330;2024-02-15T14:43:36;15.00;99.90
17815;DHT22;9031;50.974;11.330;2024-02-15T14:46:02;15.00;99.90
17815;DHT22;9031;50.974;11.330;2024-02-15T14:48:33;15.00;99.90
17815;DHT22;9031;50.974;11.330;2024-02-15T14:50:59;15.00;99.90
17815;DHT22;9031;50.974;11.330;2024-02-15T14:53:25;15.00;99.90
17815;DHT22;9031;50.974;11.330;2024-02-15T14:55:52;15.00;99.90
17815;DHT22;9031;50.974;11.330;2024-02-15T14:58:19;15.10;99.90
17815;DHT22;9031;50.974;11.330;2024-02-15T15:00:46;14.90;99.90
17815;DHT22;9031;50.974;11.330;2024-02-15T15:03:11;14.80;99.90
17815;DHT22;9031;50.974;11.330;2024-02-15T15:05:38;14.80;99.90
17815;DHT22;9031;50.974;11.330;2024-02-15T15:08:22;14.90;99.90
17815;DHT22;9031;50.974;11.330;2024-02-15T15:11:06;14.90;99.90
17815;DHT22;9031;50.974;11.330;2024-02-15T15:13:50;14.90;99.90
17815;DHT22;9031;50.974;11.330;2024-02-15T15:16:17;15.30;99.90
17815;DHT22;9031;50.974;11.330;2024-02-15T15:18:48;15.50;99.90
17815;DHT22;9031;50.974;11.330;2024-02-15T15:21:17;15.60;99.90
17815;DHT22;9031;50.974;11.330;2024-02-15T15:23:43;15.50;99.90
17815;DHT22;9031;50.974;11.330;2024-02-15T15:26:08;15.50;99.90
17815;DHT22;9031;50.974;11.330;2024-02-15T15:28:37;15.60;99.90
17815;DHT22;9031;50.974;11.330;2024-02-15T15:31:03;15.70;99.90
17815;DHT22;9031;50.974;11.330;2024-02-15T15:33:30;15.60;99.90
17815;DHT22;9031;50.974;11.330;2024-02-15T15:35:58;15.60;99.90
17815;DHT22;9031;50.974;11.330;2024-02-15T15:38:24;15.60;99.90
17815;DHT22;9031;50.974;11.330;2024-02-15T15:40:49;15.50;99.90